createdAt,value
2015-09-27T00:00:30.091Z,80.8
2015-09-27T00:01:29.797Z,80.3
2015-09-27T00:02:29.753Z,80.3
2015-09-27T00:03:29.708Z,80.6
2015-09-27T00:04:29.649Z,80.6
2015-09-27T00:05:29.605Z,80.9
2015-09-27T00:06:29.545Z,81.2
2015-09-27T00:07:29.485Z,80.7
2015-09-27T00:08:29.441Z,80.8
2015-09-27T00:09:29.381Z,81.1
2015-09-27T00:10:29.321Z,80.7
2015-09-27T00:11:29.277Z,80.6
2015-09-27T00:12:29.218Z,80.9
2015-09-27T00:13:29.174Z,81.1
2015-09-27T00:14:29.114Z,81.2
2015-09-27T00:15:29.069Z,81.3
2015-09-27T00:16:29.010Z,81.3
2015-09-27T00:17:28.950Z,81.4
2015-09-27T00:18:28.891Z,81.5
2015-09-27T00:19:28.846Z,81.7
2015-09-27T00:20:28.802Z,81.9
2015-09-27T00:21:28.743Z,81.6
2015-09-27T00:22:28.698Z,81.3
2015-09-27T00:23:28.638Z,81.1
2015-09-27T00:24:28.579Z,80.6
2015-09-27T00:25:28.519Z,80.4
2015-09-27T00:26:28.474Z,80.3
2015-09-27T00:27:28.414Z,80.5
2015-09-27T00:28:28.371Z,80.4
2015-09-27T00:29:28.326Z,80.4
2015-09-27T00:30:28.264Z,80.6
2015-09-27T00:31:28.438Z,81.2
2015-09-27T00:32:28.160Z,81.1
2015-09-27T00:33:28.101Z,81.8
2015-09-27T00:34:28.040Z,82
2015-09-27T00:35:27.996Z,82
2015-09-27T00:36:27.952Z,81.6
2015-09-27T00:37:27.892Z,82.1
2015-09-27T00:38:27.832Z,82.1
2015-09-27T00:39:27.788Z,82.2
2015-09-27T00:40:27.728Z,81.9
2015-09-27T00:41:27.684Z,81.5
2015-09-27T00:42:27.625Z,81.1
2015-09-27T00:43:27.580Z,81.8
2015-09-27T00:44:27.739Z,81.1
2015-09-27T00:45:27.695Z,80.9
2015-09-27T00:46:27.417Z,80.8
2015-09-27T00:47:27.341Z,81
2015-09-27T00:48:27.297Z,80.9
2015-09-27T00:49:27.253Z,81.2
2015-09-27T00:50:27.193Z,81.4
2015-09-27T00:51:27.133Z,81.3
2015-09-27T00:52:27.088Z,81.1
2015-09-27T00:53:27.029Z,80.7
2015-09-27T00:54:26.985Z,80.7
2015-09-27T00:55:26.925Z,80.9
2015-09-27T00:56:26.880Z,81.1
2015-09-27T00:57:26.822Z,80.8
2015-09-27T00:58:26.761Z,80.8
2015-09-27T00:59:26.719Z,81.8
2015-09-27T01:00:26.658Z,82.1
2015-09-27T01:01:26.613Z,82.6
2015-09-27T01:02:26.555Z,82.5
2015-09-27T01:03:25.761Z,82.3
2015-09-27T01:04:26.449Z,82.2
2015-09-27T01:05:26.405Z,82.2
2015-09-27T01:06:26.346Z,83
2015-09-27T01:07:26.302Z,82.6
2015-09-27T01:08:26.243Z,81.8
2015-09-27T01:09:26.182Z,81.4
2015-09-27T01:10:26.123Z,81.3
2015-09-27T01:11:26.079Z,81.2
2015-09-27T01:12:26.019Z,81.2
2015-09-27T01:13:25.975Z,81
2015-09-27T01:14:25.915Z,81.2
2015-09-27T01:15:25.854Z,81.4
2015-09-27T01:16:25.795Z,81.3
2015-09-27T01:17:25.767Z,81.7
2015-09-27T01:18:25.711Z,82.2
2015-09-27T01:19:25.651Z,82.3
2015-09-27T01:20:25.592Z,82.5
2015-09-27T01:21:25.547Z,82.8
2015-09-27T01:22:25.503Z,83.3
2015-09-27T01:23:25.427Z,83.1
2015-09-27T01:24:25.399Z,83
2015-09-27T01:25:25.339Z,82.5
2015-09-27T01:26:25.279Z,82.1
2015-09-27T01:27:25.220Z,82
2015-09-27T01:28:25.175Z,82.1
2015-09-27T01:29:25.116Z,82.5
2015-09-27T01:30:25.056Z,82.3
2015-09-27T01:31:25.012Z,82.2
2015-09-27T01:32:24.952Z,82
2015-09-27T01:33:24.908Z,82.7
2015-09-27T01:34:24.833Z,82.1
2015-09-27T01:35:24.804Z,81.8
2015-09-27T01:36:24.729Z,81.8
2015-09-27T01:37:24.669Z,80.9
2015-09-27T01:38:24.610Z,80.8
2015-09-27T01:39:24.799Z,81.2
2015-09-27T01:40:24.521Z,81.5
2015-09-27T01:41:24.461Z,82.2
2015-09-27T01:42:24.417Z,81.9
2015-09-27T01:43:24.357Z,81.4
2015-09-27T01:44:24.295Z,81.5
2015-09-27T01:45:24.251Z,81.9
2015-09-27T01:46:24.207Z,81.9
2015-09-27T01:47:24.146Z,82.2
2015-09-27T01:48:24.101Z,82.1
2015-09-27T01:49:24.042Z,82.3
2015-09-27T01:50:23.967Z,82.4
2015-09-27T01:51:23.923Z,83
2015-09-27T01:52:23.878Z,82.6
2015-09-27T01:53:23.820Z,82.5
2015-09-27T01:54:23.759Z,82.3
2015-09-27T01:55:22.965Z,82.6
2015-09-27T01:56:23.656Z,82.5
2015-09-27T01:57:23.595Z,81.5
2015-09-27T01:58:23.551Z,81.5
2015-09-27T01:59:23.507Z,81.7
2015-09-27T02:00:23.447Z,82
2015-09-27T02:01:23.387Z,81.5
2015-09-27T02:02:23.344Z,81.4
2015-09-27T02:03:23.283Z,81.9
2015-09-27T02:04:23.458Z,81.8
2015-09-27T02:05:23.180Z,82
2015-09-27T02:06:23.355Z,81.8
2015-09-27T02:07:23.076Z,81.8
2015-09-27T02:08:23.016Z,81.8
2015-09-27T02:09:22.972Z,81.8
2015-09-27T02:10:22.912Z,81.8
2015-09-27T02:11:22.118Z,82.1
2015-09-27T02:12:22.808Z,82.3
2015-09-27T02:13:22.749Z,82.4
2015-09-27T02:14:22.704Z,82.8
2015-09-27T02:15:22.675Z,82.8
2015-09-27T02:16:22.585Z,82.4
2015-09-27T02:17:22.541Z,82.1
2015-09-27T02:18:22.497Z,81.8
2015-09-27T02:19:22.437Z,81.7
2015-09-27T02:20:22.393Z,82
2015-09-27T02:21:22.333Z,81.9
2015-09-27T02:22:22.274Z,81.9
2015-09-27T02:23:22.230Z,81.8
2015-09-27T02:24:22.169Z,81.9
2015-09-27T02:25:22.124Z,82.1
2015-09-27T02:26:22.065Z,82
2015-09-27T02:27:22.255Z,81.9
2015-09-27T02:28:21.961Z,82.6
2015-09-27T02:29:21.917Z,83
2015-09-27T02:30:21.858Z,83
2015-09-27T02:31:21.798Z,82.5
2015-09-27T02:32:21.754Z,82.6
2015-09-27T02:33:21.710Z,82.9
2015-09-27T02:34:21.649Z,82.6
2015-09-27T02:35:21.591Z,82.6
2015-09-27T02:36:21.546Z,82.3
2015-09-27T02:37:21.720Z,82.2
2015-09-27T02:38:21.443Z,82.2
2015-09-27T02:39:21.383Z,81.8
2015-09-27T02:40:21.337Z,81.6
2015-09-27T02:41:21.513Z,81.8
2015-09-27T02:42:21.234Z,81.8
2015-09-27T02:43:21.174Z,81.9
2015-09-27T02:44:21.115Z,81.8
2015-09-27T02:45:21.304Z,81.7
2015-09-27T02:46:21.007Z,81.4
2015-09-27T02:47:20.964Z,81
2015-09-27T02:48:20.904Z,81.4
2015-09-27T02:49:21.094Z,81.8
2015-09-27T02:50:20.800Z,81.8
2015-09-27T02:51:20.740Z,81.9
2015-09-27T02:52:20.681Z,82.4
2015-09-27T02:53:19.871Z,82
2015-09-27T02:54:20.576Z,82.2
2015-09-27T02:55:20.532Z,82.6
2015-09-27T02:56:20.488Z,82.8
2015-09-27T02:57:20.429Z,83
2015-09-27T02:58:20.369Z,82.5
2015-09-27T02:59:20.324Z,82.1
2015-09-27T03:00:20.264Z,82.2
2015-09-27T03:01:20.220Z,82.5
2015-09-27T03:02:20.160Z,82.3
2015-09-27T03:03:20.101Z,81.9
2015-09-27T03:04:20.056Z,82.1
2015-09-27T03:05:20.013Z,82.4
2015-09-27T03:06:19.937Z,82.4
2015-09-27T03:07:19.893Z,82.6
2015-09-27T03:08:19.849Z,82.7
2015-09-27T03:09:19.789Z,81.8
2015-09-27T03:10:19.745Z,81.9
2015-09-27T03:11:19.686Z,82.2
2015-09-27T03:12:19.641Z,82
2015-09-27T03:13:19.581Z,82.3
2015-09-27T03:14:19.521Z,82.3
2015-09-27T03:15:19.477Z,82.3
2015-09-27T03:16:19.418Z,82.2
2015-09-27T03:17:19.374Z,82.3
2015-09-27T03:18:19.313Z,82.4
2015-09-27T03:19:19.269Z,82.4
2015-09-27T03:20:19.210Z,82.5
2015-09-27T03:21:19.165Z,82.7
2015-09-27T03:22:19.106Z,82.5
2015-09-27T03:23:19.046Z,82.6
2015-09-27T03:24:18.986Z,82.4
2015-09-27T03:25:18.927Z,83.1
2015-09-27T03:26:18.882Z,83.2
2015-09-27T03:27:18.838Z,83.3
2015-09-27T03:28:18.779Z,82.5
2015-09-27T03:29:18.719Z,82.8
2015-09-27T03:30:18.674Z,82.8
2015-09-27T03:31:18.615Z,83
2015-09-27T03:32:18.555Z,83.3
2015-09-27T03:33:18.511Z,83.1
2015-09-27T03:34:18.452Z,82.9
2015-09-27T03:35:18.438Z,83
2015-09-27T03:36:18.348Z,82.9
2015-09-27T03:37:18.303Z,82.8
2015-09-27T03:38:18.243Z,82.8
2015-09-27T03:39:18.433Z,82
2015-09-27T03:40:18.139Z,82.5
2015-09-27T03:41:18.080Z,82.9
2015-09-27T03:42:18.035Z,82.6
2015-09-27T03:43:17.976Z,82.8
2015-09-27T03:44:17.931Z,82.8
2015-09-27T03:45:17.872Z,82.6
2015-09-27T03:46:18.062Z,82.2
2015-09-27T03:47:17.768Z,81.8
2015-09-27T03:48:17.708Z,82.2
2015-09-27T03:49:17.664Z,82.3
2015-09-27T03:50:17.604Z,81.6
2015-09-27T03:51:17.545Z,81.5
2015-09-27T03:52:17.734Z,81.8
2015-09-27T03:53:17.440Z,81.6
2015-09-27T03:54:17.380Z,81.7
2015-09-27T03:55:17.195Z,81.8
2015-09-27T03:56:17.277Z,82.1
2015-09-27T03:57:17.232Z,82.5
2015-09-27T03:58:17.169Z,82.1
2015-09-27T03:59:17.125Z,82.1
2015-09-27T04:00:17.066Z,82.4
2015-09-27T04:01:17.006Z,82.2
2015-09-27T04:02:17.197Z,81.8
2015-09-27T04:03:16.902Z,82.5
2015-09-27T04:04:16.842Z,82.5
2015-09-27T04:05:16.799Z,82.6
2015-09-27T04:06:16.738Z,82.7
2015-09-27T04:07:16.679Z,82.4
2015-09-27T04:08:16.635Z,82.1
2015-09-27T04:09:16.574Z,81.5
2015-09-27T04:10:16.516Z,81.4
2015-09-27T04:11:16.472Z,82
2015-09-27T04:12:16.411Z,82.1
2015-09-27T04:13:16.367Z,81.8
2015-09-27T04:14:16.308Z,82.1
2015-09-27T04:15:16.498Z,82.1
2015-09-27T04:16:16.204Z,81.8
2015-09-27T04:17:16.144Z,82.2
2015-09-27T04:18:16.085Z,82.4
2015-09-27T04:19:16.040Z,81.8
2015-09-27T04:20:15.980Z,82.7
2015-09-27T04:21:15.936Z,82.5
2015-09-27T04:22:15.877Z,82.7
2015-09-27T04:23:15.832Z,82.2
2015-09-27T04:24:15.772Z,82
2015-09-27T04:25:15.728Z,82
2015-09-27T04:26:15.668Z,82
2015-09-27T04:27:15.609Z,82
2015-09-27T04:28:15.579Z,82.2
2015-09-27T04:29:15.504Z,82
2015-09-27T04:30:15.460Z,82.1
2015-09-27T04:31:15.401Z,82.1
2015-09-27T04:32:15.357Z,82.2
2015-09-27T04:33:15.296Z,82.2
2015-09-27T04:34:15.237Z,82
2015-09-27T04:35:15.176Z,82.2
2015-09-27T04:36:15.134Z,83
2015-09-27T04:37:15.090Z,83
2015-09-27T04:38:15.029Z,83
2015-09-27T04:39:14.985Z,82.7
2015-09-27T04:40:14.926Z,82.7
2015-09-27T04:41:14.866Z,82.6
2015-09-27T04:42:14.806Z,82.2
2015-09-27T04:43:14.762Z,81.8
2015-09-27T04:44:14.701Z,81.7
2015-09-27T04:45:14.658Z,82.2
2015-09-27T04:46:14.598Z,82.5
2015-09-27T04:47:14.789Z,82.5
2015-09-27T04:48:14.494Z,83
2015-09-27T04:49:14.434Z,82.7
2015-09-27T04:50:14.406Z,82.8
2015-09-27T04:51:14.331Z,83.3
2015-09-27T04:52:14.286Z,83.5
2015-09-27T04:53:14.242Z,82.9
2015-09-27T04:54:14.183Z,83.2
2015-09-27T04:55:14.123Z,83
2015-09-27T04:56:14.063Z,83.2
2015-09-27T04:57:14.019Z,83.1
2015-09-27T04:58:13.974Z,82.9
2015-09-27T04:59:13.914Z,82.7
2015-09-27T05:00:13.870Z,83.2
2015-09-27T05:01:13.795Z,83
2015-09-27T05:02:13.751Z,82.7
2015-09-27T05:03:13.689Z,82
2015-09-27T05:04:13.644Z,82.4
2015-09-27T05:05:13.585Z,82.3
2015-09-27T05:06:13.540Z,82.6
2015-09-27T05:07:13.480Z,82.8
2015-09-27T05:08:13.421Z,82.7
2015-09-27T05:09:13.376Z,82.7
2015-09-27T05:10:13.316Z,82.7
2015-09-27T05:11:13.272Z,82.4
2015-09-27T05:12:13.213Z,82.1
2015-09-27T05:13:13.168Z,82.7
2015-09-27T05:14:13.109Z,82.5
2015-09-27T05:15:13.064Z,82.4
2015-09-27T05:16:13.240Z,82.5
2015-09-27T05:17:12.960Z,82.9
2015-09-27T05:18:12.901Z,83.9
2015-09-27T05:19:12.840Z,83.6
2015-09-27T05:20:12.797Z,83.5
2015-09-27T05:21:12.737Z,83.2
2015-09-27T05:22:12.693Z,83.3
2015-09-27T05:23:12.634Z,83.4
2015-09-27T05:24:12.573Z,84.1
2015-09-27T05:25:12.514Z,84.2
2015-09-27T05:26:12.470Z,84.1
2015-09-27T05:27:12.410Z,84.5
2015-09-27T05:28:12.600Z,83.7
2015-09-27T05:29:12.322Z,83.9
2015-09-27T05:30:12.262Z,83.4
2015-09-27T05:31:12.202Z,83.8
2015-09-27T05:32:12.142Z,83.6
2015-09-27T05:33:12.098Z,83.5
2015-09-27T05:34:12.053Z,85.1
2015-09-27T05:35:11.978Z,84.8
2015-09-27T05:36:11.950Z,84.8
2015-09-27T05:37:11.875Z,84.4
2015-09-27T05:38:11.830Z,84.1
2015-09-27T05:39:11.770Z,84.2
2015-09-27T05:40:11.711Z,84
2015-09-27T05:41:11.667Z,83.9
2015-09-27T05:42:11.607Z,83.8
2015-09-27T05:43:11.563Z,84.2
2015-09-27T05:44:11.510Z,84.4
2015-09-27T05:45:11.460Z,85
2015-09-27T05:46:11.401Z,85
2015-09-27T05:47:11.357Z,85.1
2015-09-27T05:48:11.296Z,84.7
2015-09-27T05:49:11.237Z,84.3
2015-09-27T05:50:11.193Z,84.3
2015-09-27T05:51:11.383Z,85
2015-09-27T05:52:11.090Z,85
2015-09-27T05:53:11.045Z,85.1
2015-09-27T05:54:10.970Z,84.9
2015-09-27T05:55:10.926Z,84.4
2015-09-27T05:56:10.881Z,84.5
2015-09-27T05:57:10.821Z,84.6
2015-09-27T05:58:10.762Z,85
2015-09-27T05:59:10.717Z,85
2015-09-27T06:00:10.658Z,85.3
2015-09-27T06:01:10.614Z,85
2015-09-27T06:02:10.570Z,85.1
2015-09-27T06:03:10.494Z,85.3
2015-09-27T06:04:10.451Z,84.9
2015-09-27T06:05:10.390Z,85
2015-09-27T06:06:10.346Z,84.3
2015-09-27T06:07:10.287Z,84.3
2015-09-27T06:08:10.243Z,85
2015-09-27T06:09:10.182Z,85
2015-09-27T06:10:10.138Z,85.1
2015-09-27T06:11:10.078Z,85.4
2015-09-27T06:12:10.034Z,85.4
2015-09-27T06:13:09.975Z,85.6
2015-09-27T06:14:09.912Z,86
2015-09-27T06:15:09.884Z,86
2015-09-27T06:16:09.823Z,86.1
2015-09-27T06:17:09.781Z,86.1
2015-09-27T06:18:09.736Z,85.9
2015-09-27T06:19:09.661Z,86.1
2015-09-27T06:20:09.600Z,86.1
2015-09-27T06:21:09.587Z,86
2015-09-27T06:22:09.496Z,85.9
2015-09-27T06:23:09.453Z,86.1
2015-09-27T06:24:09.408Z,86.2
2015-09-27T06:25:09.348Z,85.7
2015-09-27T06:26:09.304Z,85.8
2015-09-27T06:27:09.229Z,85.3
2015-09-27T06:28:09.435Z,85.7
2015-09-27T06:29:09.125Z,85.7
2015-09-27T06:30:09.073Z,85.7
2015-09-27T06:31:09.028Z,85.7
2015-09-27T06:32:08.985Z,85.5
2015-09-27T06:33:08.925Z,85.4
2015-09-27T06:34:08.880Z,85.6
2015-09-27T06:35:08.821Z,85.8
2015-09-27T06:36:08.777Z,85.8
2015-09-27T06:37:08.716Z,86.1
2015-09-27T06:38:08.657Z,85.8
2015-09-27T06:39:08.629Z,85.6
2015-09-27T06:40:08.553Z,85.7
2015-09-27T06:41:08.494Z,85.6
2015-09-27T06:42:08.449Z,86.2
2015-09-27T06:43:08.390Z,86.3
2015-09-27T06:44:08.346Z,86.2
2015-09-27T06:45:08.536Z,86.1
2015-09-27T06:46:08.241Z,86.1
2015-09-27T06:47:08.197Z,86.1
2015-09-27T06:48:08.138Z,86.5
2015-09-27T06:49:08.078Z,86.8
2015-09-27T06:50:08.018Z,86.9
2015-09-27T06:51:07.974Z,87.1
2015-09-27T06:52:07.929Z,87.2
2015-09-27T06:53:07.854Z,87.1
2015-09-27T06:54:07.826Z,87.5
2015-09-27T06:55:07.766Z,87.5
2015-09-27T06:56:07.717Z,87.5
2015-09-27T06:57:07.656Z,87.5
2015-09-27T06:58:07.596Z,87.5
2015-09-27T06:59:07.552Z,87.3
2015-09-27T07:00:07.493Z,87.2
2015-09-27T07:01:07.448Z,87
2015-09-27T07:02:07.389Z,87.3
2015-09-27T07:03:07.328Z,87.2
2015-09-27T07:04:07.269Z,87.3
2015-09-27T07:05:07.225Z,87.6
2015-09-27T07:06:07.415Z,87.8
2015-09-27T07:07:07.122Z,88
2015-09-27T07:08:07.061Z,87.7
2015-09-27T07:09:07.002Z,87.7
2015-09-27T07:10:06.972Z,87.9
2015-09-27T07:11:06.898Z,87.5
2015-09-27T07:12:06.869Z,87.7
2015-09-27T07:13:06.794Z,87.8
2015-09-27T07:14:06.750Z,87.7
2015-09-27T07:15:06.689Z,87.9
2015-09-27T07:16:06.880Z,87.6
2015-09-27T07:17:06.585Z,87.3
2015-09-27T07:18:06.541Z,87.6
2015-09-27T07:19:06.482Z,87
2015-09-27T07:20:06.422Z,87.2
2015-09-27T07:21:06.363Z,87.2
2015-09-27T07:22:06.318Z,87
2015-09-27T07:23:06.258Z,87.1
2015-09-27T07:24:06.214Z,86.5
2015-09-27T07:25:06.168Z,86.4
2015-09-27T07:26:06.108Z,86.3
2015-09-27T07:27:06.048Z,86
2015-09-27T07:28:06.004Z,86.5
2015-09-27T07:29:05.960Z,87
2015-09-27T07:30:05.900Z,86.8
2015-09-27T07:31:05.871Z,86.1
2015-09-27T07:32:05.812Z,86.4
2015-09-27T07:33:05.735Z,86.2
2015-09-27T07:34:05.676Z,86.1
2015-09-27T07:35:05.632Z,86.7
2015-09-27T07:36:05.573Z,86.5
2015-09-27T07:37:05.529Z,86.7
2015-09-27T07:38:05.484Z,86.6
2015-09-27T07:39:05.424Z,86.1
2015-09-27T07:40:05.364Z,86.4
2015-09-27T07:41:05.148Z,85.4
2015-09-27T07:42:05.260Z,85.5
2015-09-27T07:43:05.216Z,86.2
2015-09-27T07:44:05.156Z,85.2
2015-09-27T07:45:05.097Z,84.9
2015-09-27T07:46:05.052Z,84.9
2015-09-27T07:47:04.993Z,85.3
2015-09-27T07:48:04.933Z,85.1
2015-09-27T07:49:04.888Z,85
2015-09-27T07:50:04.844Z,83.8
2015-09-27T07:51:04.784Z,83.8
2015-09-27T07:52:04.741Z,83.9
2015-09-27T07:53:04.681Z,84.2
2015-09-27T07:54:04.636Z,84.5
2015-09-27T07:55:04.577Z,84.6
2015-09-27T07:56:04.517Z,84.7
2015-09-27T07:57:04.473Z,84.3
2015-09-27T07:58:04.413Z,84.5
2015-09-27T07:59:04.353Z,83.6
2015-09-27T08:00:04.309Z,84
2015-09-27T08:01:04.265Z,84
2015-09-27T08:02:04.205Z,83.8
2015-09-27T08:03:04.177Z,83.1
2015-09-27T08:04:04.117Z,83.6
2015-09-27T08:05:04.057Z,83
2015-09-27T08:06:03.997Z,83.3
2015-09-27T08:07:03.938Z,83.3
2015-09-27T08:08:03.752Z,83
2015-09-27T08:09:03.823Z,83.4
2015-09-27T08:10:03.765Z,83.2
2015-09-27T08:11:03.908Z,83.2
2015-09-27T08:12:03.630Z,83.1
2015-09-27T08:13:03.555Z,82.7
2015-09-27T08:14:03.503Z,82.6
2015-09-27T08:15:03.437Z,82.4
2015-09-27T08:16:03.387Z,81.8
2015-09-27T08:17:03.323Z,82
2015-09-27T08:18:03.273Z,82.1
2015-09-27T08:19:03.226Z,82.4
2015-09-27T08:20:03.165Z,82.4
2015-09-27T08:21:03.119Z,82.3
2015-09-27T08:22:03.056Z,82.4
2015-09-27T08:23:03.010Z,80.9
2015-09-27T08:24:02.966Z,81.8
2015-09-27T08:25:02.905Z,81.3
2015-09-27T08:26:02.845Z,81.9
2015-09-27T08:27:02.800Z,81.3
2015-09-27T08:28:02.973Z,81.1
2015-09-27T08:29:02.694Z,81.2
2015-09-27T08:30:02.634Z,81.4
2015-09-27T08:31:02.590Z,81.3
2015-09-27T08:32:02.529Z,81.2
2015-09-27T08:33:02.469Z,81.2
2015-09-27T08:34:02.425Z,81.3
2015-09-27T08:35:02.381Z,81.5
2015-09-27T08:36:02.322Z,81.2
2015-09-27T08:37:02.277Z,80.7
2015-09-27T08:38:02.217Z,82.2
2015-09-27T08:39:02.173Z,81.7
2015-09-27T08:40:02.130Z,81.3
2015-09-27T08:41:02.069Z,80.2
2015-09-27T08:42:02.010Z,79.9
2015-09-27T08:43:01.966Z,79.8
2015-09-27T08:44:01.903Z,80
2015-09-27T08:45:01.858Z,79.2
2015-09-27T08:46:01.814Z,79.6
2015-09-27T08:47:01.786Z,79.7
2015-09-27T08:48:01.695Z,79.7
2015-09-27T08:49:01.652Z,79.5
2015-09-27T08:50:01.841Z,80.3
2015-09-27T08:51:01.547Z,79.2
2015-09-27T08:52:01.502Z,78.8
2015-09-27T08:53:01.443Z,77
2015-09-27T08:54:01.383Z,78.2
2015-09-27T08:55:01.338Z,78.1
2015-09-27T08:56:01.279Z,78.6
2015-09-27T08:57:01.236Z,76.8
2015-09-27T08:58:01.176Z,77.2
2015-09-27T08:59:01.131Z,77.3
2015-09-27T09:00:01.072Z,77.5
2015-09-27T09:01:01.027Z,77.9
2015-09-27T09:02:01.218Z,76.3
2015-09-27T09:03:00.923Z,77.7
2015-09-27T09:04:00.895Z,76.1
2015-09-27T09:05:00.820Z,76.1
2015-09-27T09:06:00.776Z,75.9
2015-09-27T09:07:00.715Z,76
2015-09-27T09:08:00.672Z,77.3
2015-09-27T09:09:00.627Z,76.3
2015-09-27T09:10:00.552Z,75.3
2015-09-27T09:11:00.523Z,76.1
2015-09-27T09:12:00.464Z,76.3
2015-09-27T09:13:00.404Z,75.9
2015-09-27T09:14:00.360Z,76.1
2015-09-27T09:15:00.550Z,76.3
2015-09-27T09:16:00.255Z,75.9
2015-09-27T09:17:00.211Z,75.3
2015-09-27T09:18:00.152Z,75.6
2015-09-27T09:19:00.108Z,76.3
2015-09-27T09:20:00.048Z,73.9
2015-09-27T09:21:00.004Z,75.4
2015-09-27T09:21:59.945Z,75.2
2015-09-27T09:22:59.900Z,76.3
2015-09-27T09:23:59.856Z,77
2015-09-27T09:24:59.796Z,75.7
2015-09-27T09:25:59.753Z,74.4
2015-09-27T09:26:59.692Z,74.4
2015-09-27T09:27:59.647Z,74.6
2015-09-27T09:28:59.588Z,74.7
2015-09-27T09:29:59.544Z,74.4
2015-09-27T09:30:59.484Z,75.1
2015-09-27T09:31:59.439Z,73.6
2015-09-27T09:32:59.631Z,74.3
2015-09-27T09:33:59.336Z,73.6
2015-09-27T09:34:59.292Z,72.4
2015-09-27T09:35:59.247Z,73.2
2015-09-27T09:36:59.203Z,73
2015-09-27T09:37:59.143Z,72.3
2015-09-27T09:38:59.100Z,72.4
2015-09-27T09:39:59.275Z,72.8
2015-09-27T09:40:58.980Z,73.4
2015-09-27T09:41:58.921Z,74.5
2015-09-27T09:42:58.891Z,73.6
2015-09-27T09:43:59.067Z,70.5
2015-09-27T09:44:58.897Z,70.4
2015-09-27T09:45:58.728Z,71.8
2015-09-27T09:46:58.669Z,71.1
2015-09-27T09:47:58.858Z,72
2015-09-27T09:48:58.565Z,72
2015-09-27T09:49:58.520Z,72.4
2015-09-27T09:50:58.711Z,73
2015-09-27T09:51:58.432Z,73.2
2015-09-27T09:52:58.371Z,73.5
2015-09-27T09:53:58.309Z,72.4
2015-09-27T09:54:58.265Z,72.2
2015-09-27T09:55:58.221Z,71.6
2015-09-27T09:56:58.209Z,71.1
2015-09-27T09:57:58.118Z,71.7
2015-09-27T09:58:58.073Z,72.2
2015-09-27T09:59:58.013Z,70.6
2015-09-27T10:00:57.954Z,70.8
2015-09-27T10:01:58.159Z,70.3
2015-09-27T10:02:57.865Z,68.9
2015-09-27T10:03:57.805Z,68.9
2015-09-27T10:04:57.761Z,69.3
2015-09-27T10:05:57.701Z,69.4
2015-09-27T10:06:57.673Z,69.5
2015-09-27T10:07:57.613Z,69.3
2015-09-27T10:08:57.553Z,68
2015-09-27T10:09:57.494Z,66.9
2015-09-27T10:10:57.450Z,67
2015-09-27T10:11:57.406Z,65.5
2015-09-27T10:12:57.346Z,65.8
2015-09-27T10:13:57.317Z,65.4
2015-09-27T10:14:57.242Z,66
2015-09-27T10:15:57.197Z,65.4
2015-09-27T10:16:57.139Z,65.4
2015-09-27T10:17:57.094Z,65.6
2015-09-27T10:18:57.034Z,66.3
2015-09-27T10:19:57.006Z,66.5
2015-09-27T10:20:56.931Z,65.1
2015-09-27T10:21:56.886Z,65.7
2015-09-27T10:22:56.830Z,66.8
2015-09-27T10:23:57.022Z,67
2015-09-27T10:24:56.743Z,64.8
2015-09-27T10:25:56.683Z,65.9
2015-09-27T10:26:56.639Z,65.1
2015-09-27T10:27:56.579Z,64.2
2015-09-27T10:28:56.519Z,65.6
2015-09-27T10:29:56.475Z,63.8
2015-09-27T10:30:56.415Z,63.7
2015-09-27T10:31:56.372Z,62.8
2015-09-27T10:32:56.327Z,63.7
2015-09-27T10:33:56.283Z,64
2015-09-27T10:34:56.223Z,64
2015-09-27T10:35:56.164Z,63.1
2015-09-27T10:36:56.119Z,64.4
2015-09-27T10:37:56.059Z,64.4
2015-09-27T10:38:56.015Z,63.5
2015-09-27T10:39:55.955Z,63.2
2015-09-27T10:40:55.912Z,63.2
2015-09-27T10:41:55.851Z,64
2015-09-27T10:42:55.807Z,61.8
2015-09-27T10:43:55.748Z,64.5
2015-09-27T10:44:55.703Z,65.4
2015-09-27T10:45:55.659Z,64.5
2015-09-27T10:46:55.599Z,64.4
2015-09-27T10:47:55.540Z,63.5
2015-09-27T10:48:55.496Z,63.9
2015-09-27T10:49:55.451Z,63.8
2015-09-27T10:50:55.392Z,64.8
2015-09-27T10:51:55.332Z,65.4
2015-09-27T10:52:55.287Z,65.5
2015-09-27T10:53:55.228Z,65.8
2015-09-27T10:54:55.199Z,65.6
2015-09-27T10:55:55.139Z,63.6
2015-09-27T10:56:55.080Z,64.3
2015-09-27T10:57:55.051Z,59.3
2015-09-27T10:58:54.976Z,59.5
2015-09-27T10:59:54.948Z,59.7
2015-09-27T11:00:54.887Z,58.2
2015-09-27T11:01:54.828Z,56.6
2015-09-27T11:02:54.783Z,57.8
2015-09-27T11:03:54.724Z,56.9
2015-09-27T11:04:54.680Z,55.4
2015-09-27T11:05:54.619Z,56.6
2015-09-27T11:06:54.592Z,58.4
2015-09-27T11:07:54.532Z,59.4
2015-09-27T11:08:54.486Z,59.5
2015-09-27T11:09:54.424Z,59.1
2015-09-27T11:10:54.380Z,58.9
2015-09-27T11:11:54.571Z,58.9
2015-09-27T11:12:54.277Z,59.5
2015-09-27T11:13:54.216Z,59.6
2015-09-27T11:14:54.172Z,61.1
2015-09-27T11:15:54.129Z,61.9
2015-09-27T11:16:54.069Z,61
2015-09-27T11:17:54.025Z,58.9
2015-09-27T11:18:53.965Z,58.4
2015-09-27T11:19:53.935Z,56.9
2015-09-27T11:20:53.860Z,57.4
2015-09-27T11:21:53.816Z,58.6
2015-09-27T11:22:53.773Z,58.4
2015-09-27T11:23:53.729Z,56.3
2015-09-27T11:24:53.669Z,56.5
2015-09-27T11:25:53.610Z,58.5
2015-09-27T11:26:53.565Z,58.7
2015-09-27T11:27:53.521Z,60.1
2015-09-27T11:28:53.461Z,59.9
2015-09-27T11:29:53.417Z,59.1
2015-09-27T11:30:53.357Z,58.4
2015-09-27T11:31:53.328Z,59.3
2015-09-27T11:32:53.253Z,58.9
2015-09-27T11:33:53.209Z,60.3
2015-09-27T11:34:53.164Z,60
2015-09-27T11:35:53.136Z,59.1
2015-09-27T11:36:53.076Z,59.4
2015-09-27T11:37:53.017Z,57.5
2015-09-27T11:38:52.957Z,58
2015-09-27T11:39:52.912Z,58.7
2015-09-27T11:40:52.853Z,56
2015-09-27T11:41:52.809Z,56.1
2015-09-27T11:42:52.764Z,56.6
2015-09-27T11:43:52.705Z,58
2015-09-27T11:44:52.661Z,58.8
2015-09-27T11:45:52.601Z,59.6
2015-09-27T11:46:52.572Z,60.8
2015-09-27T11:47:52.512Z,60.4
2015-09-27T11:48:52.312Z,59.7
2015-09-27T11:49:52.409Z,59.5
2015-09-27T11:50:52.364Z,60.3
2015-09-27T11:51:52.305Z,62.2
2015-09-27T11:52:52.261Z,63.4
2015-09-27T11:53:52.201Z,62
2015-09-27T11:54:52.157Z,60.1
2015-09-27T11:55:52.222Z,60.8
2015-09-27T11:56:52.053Z,61.4
2015-09-27T11:57:52.008Z,61.1
2015-09-27T11:58:51.950Z,61
2015-09-27T11:59:51.920Z,59.9
2015-09-27T12:00:51.877Z,60.2
2015-09-27T12:01:51.848Z,59.5
2015-09-27T12:02:51.788Z,59.4
2015-09-27T12:03:51.697Z,59.8
2015-09-27T12:04:51.699Z,60.6
2015-09-27T12:05:51.593Z,61.5
2015-09-27T12:06:51.549Z,62.3
2015-09-27T12:07:51.505Z,62.7
2015-09-27T12:08:51.477Z,63.1
2015-09-27T12:09:51.401Z,63.5
2015-09-27T12:10:51.357Z,62.8
2015-09-27T12:11:51.297Z,60.7
2015-09-27T12:12:51.252Z,58.6
2015-09-27T12:13:51.443Z,59.9
2015-09-27T12:14:51.165Z,60.9
2015-09-27T12:15:51.105Z,60.5
2015-09-27T12:16:51.061Z,59
2015-09-27T12:17:51.001Z,59.6
2015-09-27T12:18:51.191Z,58.2
2015-09-27T12:19:50.910Z,59.8
2015-09-27T12:20:50.865Z,60.2
2015-09-27T12:21:50.806Z,60.1
2015-09-27T12:22:50.762Z,61.3
2015-09-27T12:23:50.702Z,60.9
2015-09-27T12:24:49.907Z,60.4
2015-09-27T12:25:50.598Z,61.3
2015-09-27T12:26:50.554Z,61.3
2015-09-27T12:27:50.510Z,61.2
2015-09-27T12:28:50.465Z,60.1
2015-09-27T12:29:50.406Z,59.4
2015-09-27T12:30:50.362Z,59.6
2015-09-27T12:31:50.302Z,60.2
2015-09-27T12:32:50.258Z,58
2015-09-27T12:33:50.198Z,58.9
2015-09-27T12:34:50.153Z,58.2
2015-09-27T12:35:50.109Z,59.4
2015-09-27T12:36:50.065Z,59.1
2015-09-27T12:37:50.021Z,56.4
2015-09-27T12:38:49.961Z,56.4
2015-09-27T12:39:50.136Z,57.5
2015-09-27T12:40:49.858Z,57.1
2015-09-27T12:41:49.814Z,58.1
2015-09-27T12:42:49.754Z,59.2
2015-09-27T12:43:49.709Z,58.6
2015-09-27T12:44:49.665Z,58
2015-09-27T12:45:49.605Z,58.7
2015-09-27T12:46:49.561Z,58.2
2015-09-27T12:47:49.502Z,56.5
2015-09-27T12:48:49.458Z,58.5
2015-09-27T12:49:49.428Z,56.7
2015-09-27T12:50:49.354Z,57.7
2015-09-27T12:51:49.294Z,55
2015-09-27T12:52:49.250Z,56
2015-09-27T12:53:49.206Z,53.9
2015-09-27T12:54:49.147Z,54.3
2015-09-27T12:55:49.352Z,52.7
2015-09-27T12:56:49.042Z,54
2015-09-27T12:57:48.997Z,50.9
2015-09-27T12:58:48.953Z,54.2
2015-09-27T12:59:48.910Z,53.9
2015-09-27T13:00:48.850Z,56.7
2015-09-27T13:01:48.805Z,53.4
2015-09-27T13:02:48.747Z,53.5
2015-09-27T13:03:48.686Z,55.2
2015-09-27T13:04:48.642Z,54.9
2015-09-27T13:05:48.598Z,54.8
2015-09-27T13:06:48.538Z,55.4
2015-09-27T13:07:48.493Z,55.5
2015-09-27T13:08:48.449Z,56.9
2015-09-27T13:09:48.390Z,57.5
2015-09-27T13:10:48.361Z,57.8
2015-09-27T13:11:48.286Z,56.8
2015-09-27T13:12:48.242Z,57.6
2015-09-27T13:13:48.182Z,56
2015-09-27T13:14:48.138Z,57.4
2015-09-27T13:15:48.094Z,54.8
2015-09-27T13:16:48.049Z,56.4
2015-09-27T13:17:47.990Z,56.2
2015-09-27T13:18:47.945Z,54.4
2015-09-27T13:19:47.885Z,55.3
2015-09-27T13:20:47.842Z,55.4
2015-09-27T13:21:47.782Z,56.1
2015-09-27T13:22:47.738Z,56.6
2015-09-27T13:23:47.691Z,53.9